createdAt,value
2018-03-27T00:01:16.957Z,34.23
2018-03-27T00:03:44.414Z,36.33
2018-03-27T00:06:11.884Z,38.87
2018-03-27T00:08:40.093Z,35.43
2018-03-27T00:11:07.939Z,33.57
2018-03-27T00:13:36.168Z,35.23
2018-03-27T00:16:04.385Z,35.93
2018-03-27T00:18:32.231Z,35.17
2018-03-27T00:21:00.442Z,35.57
2018-03-27T00:23:28.647Z,32.33
2018-03-27T00:25:56.854Z,33.20
2018-03-27T00:28:36.739Z,33.80
2018-03-27T00:31:16.426Z,33.20
2018-03-27T00:33:56.053Z,37.83
2018-03-27T00:36:36.054Z,35.60
2018-03-27T00:39:16.155Z,37.83
2018-03-27T00:45:09.616Z,34.67
2018-03-27T00:47:37.051Z,30.37
2018-03-27T00:50:06.089Z,30.70
2018-03-27T00:52:35.068Z,29.60
2018-03-27T00:55:02.522Z,29.47
2018-03-27T00:57:30.362Z,35.43
2018-03-27T00:59:58.583Z,30.63
2018-03-27T01:02:26.846Z,31.90
2018-03-27T01:04:54.998Z,34.20
2018-03-27T01:07:23.190Z,24.23
2018-03-27T01:09:51.042Z,35.27
2018-03-27T01:12:18.483Z,33.60
2018-03-27T01:14:46.349Z,35.57
2018-03-27T01:17:13.778Z,33.50
2018-03-27T01:19:41.627Z,39.70
2018-03-27T01:22:09.537Z,29.03
2018-03-27T01:24:37.760Z,43.10
2018-03-27T01:27:05.980Z,30.57
2018-03-27T01:29:35.118Z,30.67
2018-03-27T01:32:02.942Z,35.33
2018-03-27T01:34:30.387Z,31.83
2018-03-27T01:36:57.831Z,35.37
2018-03-27T01:39:25.277Z,32.77
2018-03-27T01:41:52.779Z,37.27
2018-03-27T01:44:20.610Z,29.97
2018-03-27T01:46:48.821Z,32.20
2018-03-27T01:49:17.046Z,33.67
2018-03-27T01:51:45.247Z,33.67
2018-03-27T01:54:13.096Z,39.33
2018-03-27T01:56:41.306Z,42.20
2018-03-27T01:59:09.548Z,30.93
2018-03-27T02:01:37.808Z,41.00
2018-03-27T02:04:05.648Z,41.80
2018-03-27T02:06:33.910Z,37.30
2018-03-27T02:09:02.124Z,34.53
2018-03-27T02:11:35.599Z,35.60
2018-03-27T02:14:08.827Z,41.17
2018-03-27T02:16:42.472Z,39.30
2018-03-27T02:19:15.651Z,48.40
2018-03-27T02:21:42.995Z,55.77
2018-03-27T02:24:11.235Z,48.93
2018-03-27T02:29:12.980Z,53.70
2018-03-27T02:31:40.820Z,44.80
2018-03-27T02:34:09.067Z,48.07
2018-03-27T02:36:37.278Z,51.57
2018-03-27T02:39:05.122Z,58.23
2018-03-27T02:41:32.586Z,54.37
2018-03-27T02:44:00.792Z,49.37
2018-03-27T02:46:29.014Z,54.70
2018-03-27T02:48:56.455Z,54.13
2018-03-27T02:51:25.038Z,59.80
2018-03-27T02:53:52.492Z,54.20
2018-03-27T02:56:20.343Z,59.70
2018-03-27T02:58:48.549Z,57.87
2018-03-27T03:01:16.403Z,50.70
2018-03-27T03:03:44.617Z,58.40
2018-03-27T03:06:12.853Z,71.03
2018-03-27T03:08:41.067Z,60.97
2018-03-27T03:11:09.287Z,64.43
2018-03-27T03:13:37.128Z,71.57
2018-03-27T03:16:04.674Z,69.63
2018-03-27T03:18:32.518Z,70.70
2018-03-27T03:20:59.994Z,62.57
2018-03-27T03:25:59.886Z,76.10
2018-03-27T03:28:27.350Z,71.90
2018-03-27T03:30:56.321Z,76.73
2018-03-27T03:33:24.530Z,85.23
2018-03-27T03:35:52.377Z,78.53
2018-03-27T03:38:19.828Z,81.73
2018-03-27T03:40:47.293Z,85.93
2018-03-27T03:43:14.734Z,91.37
2018-03-27T03:45:42.582Z,96.90
2018-03-27T03:48:10.021Z,79.17
2018-03-27T03:50:37.463Z,98.50
2018-03-27T03:53:05.322Z,97.27
2018-03-27T03:55:32.753Z,99.63
2018-03-27T03:58:00.970Z,88.40
2018-03-27T04:00:28.422Z,102.20
2018-03-27T04:02:56.288Z,83.97
2018-03-27T04:05:23.772Z,78.63
2018-03-27T04:07:51.214Z,95.67
2018-03-27T04:10:19.466Z,92.13
2018-03-27T04:12:47.303Z,85.13
2018-03-27T04:15:15.153Z,98.57
2018-03-27T04:17:42.614Z,112.50
2018-03-27T04:20:10.062Z,106.47
2018-03-27T04:22:38.267Z,95.27
2018-03-27T04:25:06.120Z,102.23
2018-03-27T04:27:34.337Z,111.87
2018-03-27T04:30:02.200Z,128.00
2018-03-27T04:32:30.036Z,107.87
2018-03-27T04:34:57.501Z,101.73
2018-03-27T04:37:24.945Z,98.73
2018-03-27T04:39:52.804Z,125.00
2018-03-27T04:42:20.267Z,136.83
2018-03-27T04:44:47.738Z,131.37
2018-03-27T04:47:15.182Z,115.57
2018-03-27T04:49:42.631Z,107.00
2018-03-27T04:52:10.084Z,125.63
2018-03-27T04:54:37.931Z,115.80
2018-03-27T04:57:05.792Z,122.60
2018-03-27T04:59:33.258Z,129.20
2018-03-27T05:02:00.714Z,122.23
2018-03-27T05:04:28.566Z,110.20
2018-03-27T05:06:56.770Z,133.93
2018-03-27T05:09:24.990Z,154.27
2018-03-27T05:11:53.198Z,132.57
2018-03-27T05:14:21.511Z,125.33
2018-03-27T05:16:49.353Z,118.90
2018-03-27T05:19:16.807Z,102.77
2018-03-27T05:21:44.256Z,101.53
2018-03-27T05:24:12.470Z,86.73
2018-03-27T05:26:39.917Z,80.57
2018-03-27T05:29:07.392Z,92.43
2018-03-27T05:31:35.247Z,113.13
2018-03-27T05:34:03.451Z,113.60
2018-03-27T05:36:31.295Z,117.50
2018-03-27T05:38:59.508Z,120.37
2018-03-27T05:41:26.965Z,110.43
2018-03-27T05:43:54.799Z,104.73
2018-03-27T05:46:22.247Z,113.77
2018-03-27T05:48:49.700Z,105.43
2018-03-27T05:51:17.987Z,108.27
2018-03-27T05:53:45.436Z,104.07
2018-03-27T05:56:12.896Z,119.53
2018-03-27T05:58:41.107Z,111.13
2018-03-27T06:01:08.954Z,117.17
2018-03-27T06:03:37.154Z,116.70
2018-03-27T06:06:04.624Z,95.77
2018-03-27T06:08:32.084Z,103.00
2018-03-27T06:11:00.308Z,78.33
2018-03-27T06:13:27.763Z,84.23
2018-03-27T06:15:55.992Z,74.60
2018-03-27T06:18:23.467Z,65.07
2018-03-27T06:20:50.898Z,72.17
2018-03-27T06:23:18.734Z,63.67
2018-03-27T06:25:46.951Z,58.80
2018-03-27T06:28:14.794Z,63.03
2018-03-27T06:30:42.240Z,55.70
2018-03-27T06:33:09.676Z,60.33
2018-03-27T06:35:37.891Z,62.07
2018-03-27T06:38:05.332Z,49.47
2018-03-27T06:40:32.802Z,67.67
2018-03-27T06:43:00.242Z,56.73
2018-03-27T06:45:27.678Z,51.60
2018-03-27T06:47:55.882Z,44.07
2018-03-27T06:50:24.102Z,47.60
2018-03-27T06:52:51.542Z,45.33
2018-03-27T06:55:19.775Z,50.60
2018-03-27T06:57:47.267Z,45.30
2018-03-27T07:00:14.703Z,44.00
2018-03-27T07:02:42.154Z,47.90
2018-03-27T07:05:09.603Z,47.33
2018-03-27T07:07:37.826Z,61.57
2018-03-27T07:10:05.252Z,41.03
2018-03-27T07:12:33.472Z,39.40
2018-03-27T07:15:01.322Z,46.27
2018-03-27T07:17:28.806Z,51.10
2018-03-27T07:19:57.034Z,46.50
2018-03-27T07:22:24.463Z,44.47
2018-03-27T07:24:51.919Z,37.70
2018-03-27T07:27:19.375Z,39.73
2018-03-27T07:29:46.832Z,42.40
2018-03-27T07:32:15.043Z,36.97
2018-03-27T07:34:42.486Z,37.40
2018-03-27T07:37:10.699Z,45.37
2018-03-27T07:39:38.154Z,43.17
2018-03-27T07:44:40.287Z,46.90
2018-03-27T07:47:07.733Z,37.00
2018-03-27T07:49:35.202Z,37.87
2018-03-27T07:52:03.402Z,45.70
2018-03-27T07:54:31.276Z,36.87
2018-03-27T07:56:58.694Z,36.80
2018-03-27T07:59:26.146Z,37.60
2018-03-27T08:01:53.578Z,38.10
2018-03-27T08:04:21.336Z,38.30
2018-03-27T08:06:49.546Z,58.17
2018-03-27T08:09:17.003Z,35.43
2018-03-27T08:11:44.446Z,34.23
2018-03-27T08:14:12.651Z,33.03
2018-03-27T08:16:40.090Z,32.77
2018-03-27T08:19:08.299Z,38.83
2018-03-27T08:21:36.148Z,46.00
2018-03-27T08:24:03.607Z,34.43
2018-03-27T08:26:31.023Z,33.10
2018-03-27T08:28:58.486Z,34.17
2018-03-27T08:31:25.930Z,33.20
2018-03-27T08:33:54.142Z,33.80
2018-03-27T08:36:21.692Z,34.73
2018-03-27T08:38:49.055Z,35.67
2018-03-27T08:41:16.899Z,35.73
2018-03-27T08:43:44.335Z,39.40
2018-03-27T08:46:12.490Z,41.50
2018-03-27T08:48:39.991Z,42.10
2018-03-27T08:51:07.395Z,36.30
2018-03-27T08:53:35.631Z,27.33
2018-03-27T08:56:03.880Z,39.33
2018-03-27T08:58:32.107Z,34.80
2018-03-27T09:00:59.559Z,39.20
2018-03-27T09:03:27.408Z,33.57
2018-03-27T09:05:55.253Z,34.20
2018-03-27T09:08:23.470Z,29.87
2018-03-27T09:10:50.913Z,43.50
2018-03-27T09:13:18.355Z,32.90
2018-03-27T09:15:45.825Z,33.10
2018-03-27T09:18:13.282Z,29.17
2018-03-27T09:20:40.736Z,28.43
2018-03-27T09:23:08.209Z,28.80
2018-03-27T09:25:35.669Z,23.57
2018-03-27T09:28:03.928Z,23.80
2018-03-27T09:30:31.379Z,24.20
2018-03-27T09:32:58.821Z,22.30
2018-03-27T09:35:26.267Z,24.43
2018-03-27T09:37:53.728Z,22.83
2018-03-27T09:40:21.964Z,29.80
2018-03-27T09:42:49.415Z,31.47
2018-03-27T09:45:16.878Z,21.37
2018-03-27T09:47:44.318Z,17.70
2018-03-27T09:50:11.779Z,18.87
2018-03-27T09:52:40.000Z,21.83
2018-03-27T09:55:07.432Z,8.83
2018-03-27T09:57:35.644Z,12.17
2018-03-27T10:00:03.133Z,11.23
2018-03-27T10:02:30.572Z,9.67
2018-03-27T10:04:58.426Z,12.80
2018-03-27T10:07:26.268Z,11.70
2018-03-27T10:09:54.107Z,10.13
2018-03-27T10:12:21.579Z,9.93
2018-03-27T10:14:49.034Z,9.60
2018-03-27T10:17:17.258Z,15.47
2018-03-27T10:19:44.705Z,13.53
2018-03-27T10:22:12.573Z,12.20
2018-03-27T10:24:40.771Z,10.77
2018-03-27T10:27:08.216Z,10.50
2018-03-27T10:29:35.664Z,8.93
2018-03-27T10:32:03.881Z,15.40
2018-03-27T10:34:31.338Z,9.43
2018-03-27T10:36:59.564Z,12.00
2018-03-27T10:39:27.031Z,10.50
2018-03-27T10:41:55.346Z,15.47
2018-03-27T10:44:22.812Z,17.43
2018-03-27T10:46:51.156Z,17.47
2018-03-27T10:49:19.411Z,18.93
2018-03-27T10:51:47.638Z,18.73
2018-03-27T10:54:15.091Z,15.67
2018-03-27T10:56:42.585Z,24.60
2018-03-27T10:59:10.035Z,21.63
2018-03-27T11:01:37.475Z,29.07
2018-03-27T11:04:05.706Z,18.37
2018-03-27T11:06:33.158Z,22.43
2018-03-27T11:09:00.992Z,30.67
2018-03-27T11:11:29.216Z,26.50
2018-03-27T11:13:56.662Z,25.83
2018-03-27T11:16:24.878Z,30.83
2018-03-27T11:18:53.098Z,30.33
2018-03-27T11:21:20.550Z,25.77
2018-03-27T11:23:48.008Z,23.20
2018-03-27T11:26:15.459Z,29.80
2018-03-27T11:28:42.938Z,30.30
2018-03-27T11:31:10.395Z,27.50
2018-03-27T11:33:37.834Z,27.07
2018-03-27T11:36:06.148Z,38.73
2018-03-27T11:38:33.586Z,32.80
2018-03-27T11:41:01.812Z,33.17
2018-03-27T11:43:29.653Z,31.50
2018-03-27T11:45:57.875Z,35.13
2018-03-27T11:48:25.323Z,37.37
2018-03-27T11:50:53.522Z,31.53
2018-03-27T11:53:20.974Z,30.97
2018-03-27T11:55:49.193Z,33.30
2018-03-27T11:58:16.627Z,38.13
2018-03-27T12:00:44.076Z,31.07
2018-03-27T12:03:11.517Z,33.50
2018-03-27T12:05:38.964Z,33.23
2018-03-27T12:08:07.520Z,46.97
2018-03-27T12:10:35.759Z,33.80
2018-03-27T12:13:03.212Z,26.93
2018-03-27T12:15:30.651Z,40.53
2018-03-27T12:17:59.003Z,30.43
2018-03-27T12:20:26.849Z,32.07
2018-03-27T12:22:54.299Z,35.60
2018-03-27T12:25:21.748Z,29.33
2018-03-27T12:27:49.963Z,30.83
2018-03-27T12:30:17.424Z,27.43
2018-03-27T12:32:45.259Z,36.33
2018-03-27T12:35:13.479Z,32.87
2018-03-27T12:37:40.931Z,35.23
2018-03-27T12:40:08.794Z,38.23
2018-03-27T12:42:36.993Z,37.73
2018-03-27T12:45:05.228Z,32.80
2018-03-27T12:47:32.771Z,28.43
2018-03-27T12:50:00.370Z,29.10
2018-03-27T12:52:28.588Z,26.27
2018-03-27T12:54:56.048Z,23.00
2018-03-27T12:57:23.487Z,24.13
2018-03-27T12:59:50.943Z,26.27
2018-03-27T13:02:18.409Z,24.43
2018-03-27T13:04:47.001Z,22.13
2018-03-27T13:07:14.443Z,25.07
2018-03-27T13:09:42.664Z,23.83
2018-03-27T13:12:10.884Z,20.80
2018-03-27T13:14:38.334Z,28.00
2018-03-27T13:17:05.776Z,21.87
2018-03-27T13:19:33.245Z,23.10
2018-03-27T13:22:01.068Z,24.93
2018-03-27T13:24:28.511Z,24.37
2018-03-27T13:26:55.953Z,31.13
2018-03-27T13:29:23.414Z,32.37
2018-03-27T13:31:50.863Z,28.63
2018-03-27T13:34:19.108Z,35.23
2018-03-27T13:36:46.562Z,31.97
2018-03-27T13:39:14.008Z,36.27
2018-03-27T13:41:41.479Z,37.63
2018-03-27T13:44:09.322Z,35.23
2018-03-27T13:46:37.538Z,34.40
2018-03-27T13:49:05.386Z,37.23
2018-03-27T13:51:32.851Z,37.10
2018-03-27T13:54:00.291Z,34.53
2018-03-27T13:56:28.134Z,36.47
2018-03-27T13:58:55.993Z,37.03
2018-03-27T14:01:24.208Z,31.80
2018-03-27T14:03:51.644Z,40.13
2018-03-27T14:06:19.880Z,33.53
2018-03-27T14:08:47.325Z,34.83
2018-03-27T14:11:14.769Z,39.10
2018-03-27T14:13:42.223Z,29.50
2018-03-27T14:16:10.443Z,36.17
2018-03-27T14:18:37.899Z,31.80
2018-03-27T14:21:05.356Z,32.37
2018-03-27T14:23:32.813Z,34.00
2018-03-27T14:26:01.040Z,32.23
2018-03-27T14:28:28.505Z,36.97
2018-03-27T14:30:55.944Z,31.90
2018-03-27T14:33:23.386Z,34.83
2018-03-27T14:35:50.842Z,33.90
2018-03-27T14:38:18.330Z,42.70
2018-03-27T14:40:46.135Z,35.73
2018-03-27T14:43:13.580Z,43.57
2018-03-27T14:45:41.788Z,43.70
2018-03-27T14:48:09.230Z,32.40
2018-03-27T14:50:36.686Z,36.73
2018-03-27T14:53:04.143Z,41.27
2018-03-27T14:55:31.585Z,34.90
2018-03-27T14:57:59.779Z,41.83
2018-03-27T15:00:27.228Z,35.93
2018-03-27T15:02:54.666Z,34.10
2018-03-27T15:05:22.520Z,33.13
2018-03-27T15:07:50.730Z,36.60
2018-03-27T15:10:18.948Z,39.00
2018-03-27T15:12:46.401Z,32.90
2018-03-27T15:15:13.835Z,35.53
2018-03-27T15:17:41.271Z,33.00
2018-03-27T15:20:08.720Z,42.10
2018-03-27T15:22:36.922Z,37.50
2018-03-27T15:25:04.367Z,32.67
2018-03-27T15:27:31.806Z,28.13
2018-03-27T15:29:59.704Z,23.83
2018-03-27T15:32:27.176Z,23.47
2018-03-27T15:34:54.623Z,15.13
2018-03-27T15:37:22.049Z,18.80
2018-03-27T15:39:50.258Z,19.20
2018-03-27T15:42:17.716Z,18.00
2018-03-27T15:44:45.550Z,20.27
2018-03-27T15:47:13.384Z,18.43
2018-03-27T15:49:40.842Z,17.37
2018-03-27T15:52:08.336Z,17.90
2018-03-27T15:54:36.567Z,21.63
2018-03-27T15:57:04.048Z,23.60
2018-03-27T15:59:31.497Z,28.37
2018-03-27T16:01:59.831Z,21.47
2018-03-27T16:04:27.348Z,21.10
2018-03-27T16:06:55.626Z,17.30
2018-03-27T16:09:23.442Z,18.33
2018-03-27T16:11:50.889Z,23.83
2018-03-27T16:14:18.972Z,19.20
2018-03-27T16:16:46.530Z,24.40
2018-03-27T16:19:14.000Z,24.37
2018-03-27T16:21:41.448Z,27.93
2018-03-27T16:24:09.796Z,23.77
2018-03-27T16:26:38.061Z,22.33
2018-03-27T16:29:05.618Z,21.87
2018-03-27T16:31:33.862Z,30.33
2018-03-27T16:34:01.330Z,21.03
2018-03-27T16:36:30.498Z,25.77
2018-03-27T16:38:57.962Z,20.30
2018-03-27T16:41:25.842Z,32.10
2018-03-27T16:43:53.673Z,27.57
2018-03-27T16:46:21.916Z,33.77
2018-03-27T16:48:49.429Z,29.17
2018-03-27T16:51:16.854Z,31.63
2018-03-27T16:53:44.321Z,28.03
2018-03-27T16:56:11.844Z,32.67
2018-03-27T16:58:40.061Z,29.30
2018-03-27T17:01:07.539Z,39.60
2018-03-27T17:03:35.116Z,40.37
2018-03-27T17:06:02.605Z,36.17
2018-03-27T17:08:30.816Z,36.73
2018-03-27T17:10:59.054Z,34.77
2018-03-27T17:13:26.926Z,42.37
2018-03-27T17:15:54.404Z,42.93
2018-03-27T17:18:21.856Z,54.23
2018-03-27T17:20:49.380Z,53.07
2018-03-27T17:23:17.251Z,45.00
2018-03-27T17:25:45.126Z,47.73
2018-03-27T17:28:13.343Z,54.77
2018-03-27T17:30:44.407Z,55.53
2018-03-27T17:33:13.523Z,55.33
2018-03-27T17:35:40.993Z,57.30
2018-03-27T17:38:08.832Z,62.27
2018-03-27T17:40:37.648Z,67.57
2018-03-27T17:43:05.106Z,62.27
2018-03-27T17:45:33.347Z,75.90
2018-03-27T17:48:00.802Z,71.27
2018-03-27T17:50:30.625Z,78.93
2018-03-27T17:52:58.111Z,73.57
2018-03-27T17:55:26.704Z,88.80
2018-03-27T17:57:54.158Z,83.53
2018-03-27T18:00:21.660Z,121.47
2018-03-27T18:02:49.870Z,76.40
2018-03-27T18:05:17.734Z,83.20
2018-03-27T18:07:45.668Z,80.57
2018-03-27T18:10:13.455Z,75.77
2018-03-27T18:12:40.907Z,77.67
2018-03-27T18:15:08.360Z,70.50
2018-03-27T18:17:36.583Z,72.17
2018-03-27T18:20:04.434Z,73.17
2018-03-27T18:22:31.907Z,76.63
2018-03-27T18:24:59.406Z,69.70
2018-03-27T18:27:28.067Z,77.03
2018-03-27T18:29:56.283Z,60.43
2018-03-27T18:32:24.525Z,78.57
2018-03-27T18:34:52.759Z,68.03
2018-03-27T18:37:21.498Z,73.57
2018-03-27T18:39:49.307Z,69.20
2018-03-27T18:42:16.835Z,76.63
2018-03-27T18:44:45.075Z,80.27
2018-03-27T18:47:12.535Z,61.00
2018-03-27T18:49:40.851Z,62.50
2018-03-27T18:52:08.582Z,55.20
2018-03-27T18:54:36.607Z,56.20
2018-03-27T18:57:04.886Z,54.83
2018-03-27T18:59:32.388Z,49.23
2018-03-27T19:02:00.719Z,46.87
2018-03-27T19:04:28.449Z,44.37
2018-03-27T19:06:57.935Z,47.03
2018-03-27T19:09:26.227Z,48.00
2018-03-27T19:11:55.323Z,53.13
2018-03-27T19:14:23.956Z,47.77
2018-03-27T19:16:52.175Z,48.00
2018-03-27T19:19:20.036Z,43.20
2018-03-27T19:21:47.593Z,47.20
2018-03-27T19:24:16.223Z,48.07
2018-03-27T19:26:43.698Z,53.57
2018-03-27T19:29:11.671Z,61.67
2018-03-27T19:31:39.163Z,59.27
2018-03-27T19:34:12.209Z,61.13
2018-03-27T19:36:40.004Z,62.63
2018-03-27T19:39:07.859Z,63.37
2018-03-27T19:41:36.327Z,64.23
2018-03-27T19:44:07.392Z,64.10
2018-03-27T19:46:50.556Z,67.63
2018-03-27T19:49:19.128Z,62.07
2018-03-27T19:51:46.811Z,58.73
2018-03-27T19:54:15.405Z,60.70
2018-03-27T19:56:43.268Z,69.20
2018-03-27T19:59:11.052Z,63.10
2018-03-27T20:01:38.537Z,64.53
2018-03-27T20:04:06.384Z,58.17
2018-03-27T20:06:34.260Z,63.80
2018-03-27T20:09:01.765Z,60.63
2018-03-27T20:11:29.255Z,58.87
2018-03-27T20:13:57.847Z,57.53
2018-03-27T20:16:25.796Z,64.40
2018-03-27T20:18:54.099Z,73.00
2018-03-27T20:21:22.047Z,62.20
2018-03-27T20:23:50.319Z,60.77
2018-03-27T20:26:19.149Z,67.23
2018-03-27T20:28:47.351Z,66.87
2018-03-27T20:31:15.297Z,77.37
2018-03-27T20:33:43.880Z,76.80
2018-03-27T20:36:11.557Z,63.67
2018-03-27T20:38:39.032Z,74.17
2018-03-27T20:41:09.467Z,67.40
2018-03-27T20:43:36.942Z,70.10
2018-03-27T20:46:05.233Z,85.40
2018-03-27T20:48:46.729Z,72.13
2018-03-27T20:51:14.844Z,85.57
2018-03-27T20:53:42.345Z,77.07
2018-03-27T20:56:09.807Z,71.57
2018-03-27T20:58:37.324Z,86.83
2018-03-27T21:01:05.551Z,74.23
2018-03-27T21:03:33.084Z,71.63
2018-03-27T21:06:00.542Z,72.73
2018-03-27T21:08:28.460Z,74.83
2018-03-27T21:10:56.715Z,58.23
2018-03-27T21:13:24.654Z,73.83
2018-03-27T21:15:52.119Z,71.10
2018-03-27T21:18:20.371Z,56.17
2018-03-27T21:20:48.035Z,55.97
2018-03-27T21:23:16.341Z,57.00
2018-03-27T21:25:43.794Z,58.97
2018-03-27T21:28:11.243Z,62.87
2018-03-27T21:30:38.990Z,62.60
2018-03-27T21:33:07.374Z,56.13
2018-03-27T21:35:38.095Z,59.80
2018-03-27T21:38:06.324Z,51.17
2018-03-27T21:40:34.015Z,43.73
2018-03-27T21:43:02.231Z,66.57
2018-03-27T21:45:29.692Z,48.60
2018-03-27T21:47:57.912Z,48.10
2018-03-27T21:50:25.371Z,52.60
2018-03-27T21:52:53.600Z,43.90
2018-03-27T21:55:21.039Z,52.60
2018-03-27T21:57:48.504Z,44.80
2018-03-27T22:00:16.384Z,49.47
2018-03-27T22:02:44.223Z,56.53
2018-03-27T22:05:11.679Z,67.70
2018-03-27T22:07:39.115Z,62.00
2018-03-27T22:10:06.559Z,49.57
2018-03-27T22:12:34.016Z,52.47
2018-03-27T22:15:01.470Z,47.03
2018-03-27T22:17:29.703Z,49.77
2018-03-27T22:19:57.657Z,48.47
2018-03-27T22:22:48.827Z,52.03
2018-03-27T22:25:17.117Z,60.17
2018-03-27T22:27:44.673Z,59.47
2018-03-27T22:30:12.147Z,60.17
2018-03-27T22:32:39.758Z,59.77
2018-03-27T22:35:07.988Z,65.73
2018-03-27T22:37:35.449Z,63.77
2018-03-27T22:40:02.929Z,66.20
2018-03-27T22:42:30.592Z,75.10
2018-03-27T22:44:58.071Z,72.73
2018-03-27T22:50:28.547Z,70.63
2018-03-27T22:52:58.154Z,73.67
2018-03-27T22:55:30.592Z,67.33
2018-03-27T22:57:58.848Z,64.10
2018-03-27T23:00:26.734Z,78.43
2018-03-27T23:02:54.951Z,88.63
2018-03-27T23:05:22.397Z,88.00
2018-03-27T23:10:34.200Z,75.67
2018-03-27T23:13:01.692Z,76.30
2018-03-27T23:15:29.935Z,83.50
2018-03-27T23:17:57.408Z,94.03
2018-03-27T23:20:27.851Z,96.50
2018-03-27T23:22:56.139Z,87.20
2018-03-27T23:25:24.361Z,77.10
2018-03-27T23:27:52.556Z,74.10
2018-03-27T23:30:20.030Z,78.57
2018-03-27T23:33:03.138Z,84.27
2018-03-27T23:35:31.606Z,75.67
2018-03-27T23:40:50.042Z,76.20
2018-03-27T23:43:18.255Z,64.90
2018-03-27T23:45:47.549Z,67.87
2018-03-27T23:51:10.590Z,71.20
2018-03-27T23:56:42.592Z,72.10
2018-03-27T23:59:10.796Z,78.73
